EST,Max TemperatureF,Mean TemperatureF,Min TemperatureF,Max Dew PointF,MeanDew PointF,Min DewpointF,Max Humidity, Mean Humidity, Min Humidity, Max Sea Level PressureIn, Mean Sea Level PressureIn, Min Sea Level PressureIn, Max VisibilityMiles, Mean VisibilityMiles, Min VisibilityMiles, Max Wind SpeedMPH, Mean Wind SpeedMPH, Max Gust SpeedMPH,PrecipitationIn, CloudCover, Events, WindDirDegrees
2012-11-1,50,46,43,40,37,35,82,72,59,29.51,29.49,29.47,10,10,10,6,1,,0.00,7,Rain,233
2012-11-2,46,44,39,40,36,32,89,76,65,29.64,29.54,29.49,10,10,10,9,1,,0.00,8,Rain,273
2012-11-3,39,38,37,36,33,31,89,81,73,29.84,29.75,29.64,10,10,8,9,4,,0.06,8,Rain,248
2012-11-4,37,35,33,34,31,25,93,83,70,29.99,29.90,29.81,10,9,4,9,5,,0.01,8,Rain-Snow,267
2012-11-5,34,31,27,27,22,15,86,72,48,30.12,30.02,29.94,10,8,1,10,3,21,0.02,8,Snow,305
2012-11-6,35,26,17,20,15,13,85,63,40,30.26,30.21,30.12,10,10,10,7,3,,0.00,3,,299
2012-11-7,34,23,12,20,15,9,88,65,48,30.25,30.13,29.96,10,10,10,7,2,,0.00,2,,17
2012-11-8,35,34,32,30,27,17,89,76,50,29.94,29.87,29.81,10,7,2,13,6,20,0.02,8,Snow,351
2012-11-9,43,38,33,30,26,22,82,65,45,30.10,30.00,29.90,10,10,7,12,4,,0.00,7,Snow,277
2012-11-10,44,34,25,31,24,16,85,64,32,30.47,30.29,30.07,10,10,10,12,4,,0.00,4,,297
2012-11-11,59,44,28,38,29,24,89,73,42,30.45,30.42,30.34,10,10,10,0,0,,0.00,4,,-1
2012-11-12,70,49,28,48,36,25,92,65,30,30.43,30.31,30.11,10,10,9,12,2,26,0.00,0,,199
2012-11-13,64,45,26,50,36,23,93,85,58,30.50,30.25,30.01,10,7,1,18,6,26,0.60,7,Rain-Snow,263
2012-11-14,39,29,19,28,20,15,92,76,46,30.61,30.56,30.50,10,10,10,8,1,16,0.00,0,,352
2012-11-15,39,28,16,26,20,12,92,77,53,30.53,30.44,30.34,10,10,10,4,0,,0.00,0,,-1
2012-11-16,41,28,15,26,20,11,93,81,49,30.49,30.39,30.29,10,10,10,4,0,,0.00,3,,170
2012-11-17,43,31,19,27,22,15,93,77,40,30.71,30.60,30.44,10,10,10,5,0,,0.00,3,,225
2012-11-18,45,28,12,21,15,8,88,70,26,30.77,30.70,30.65,10,10,10,4,0,,0.00,0,,310
2012-11-19,45,28,12,22,16,8,85,71,37,30.63,30.49,30.31,10,10,9,0,0,,0.00,0,,-1
2012-11-20,46,30,14,25,20,10,89,73,42,30.30,30.23,30.16,10,10,10,0,0,,0.00,2,,-1
2012-11-21,50,36,21,26,22,18,92,72,28,30.30,30.25,30.20,10,10,10,0,0,,0.00,1,,-1
2012-11-22,52,35,18,29,22,14,85,73,37,30.31,30.22,30.11,10,10,10,4,0,,0.00,0,,300
2012-11-23,55,37,19,36,25,15,89,68,34,30.08,29.84,29.58,10,10,10,4,1,,0.00,2,Rain,273
2012-11-24,42,34,26,39,26,17,93,75,52,29.58,29.54,29.49,10,8,2,14,5,25,0.08,8,Rain-Snow,269
2012-11-25,28,22,12,18,12,8,81,63,45,29.82,29.68,29.56,10,9,3,20,10,29,0.00,5,Snow,265
2012-11-26,30,20,10,25,15,5,86,76,49,30.25,29.99,29.81,10,9,2,14,2,20,0.00,5,Snow,256
2012-11-27,30,22,14,19,16,9,88,78,64,30.31,30.28,30.22,10,10,6,0,0,,0.00,8,Snow,-1
2012-11-28,33,24,14,23,16,10,88,72,48,30.27,30.18,30.08,10,10,6,5,1,,0.00,6,Snow,208
2012-11-29,35,29,21,28,21,10,93,73,48,30.25,30.11,30.00,10,5,1,15,7,22,0.07,8,Snow,260
2012-11-30,21,10,0,12,3,-5,87,72,50,30.62,30.48,30.22,10,10,10,9,3,,0.00,2,,295